sensor_id;sensor_type;location;lat;lon;timestamp;P1;durP1;ratioP1;P2;durP2;ratioP2
19255;SDS011;9762;52.490;13.410;2022-11-15T00:01:36;34.17;;;25.30;;
19255;SDS011;9762;52.490;13.410;2022-11-15T00:04:04;32.93;;;26.00;;
19255;SDS011;9762;52.490;13.410;2022-11-15T00:06:30;32.17;;;28.75;;
19255;SDS011;9762;52.490;13.410;2022-11-15T00:08:59;31.30;;;25.03;;
19255;SDS011;9762;52.490;13.410;2022-11-15T00:11:25;30.37;;;25.53;;
19255;SDS011;9762;52.490;13.410;2022-11-15T00:13:54;30.27;;;25.37;;
19255;SDS011;9762;52.490;13.410;2022-11-15T00:16:21;29.43;;;24.60;;
19255;SDS011;9762;52.490;13.410;2022-11-15T00:18:47;31.13;;;25.73;;
19255;SDS011;9762;52.490;13.410;2022-11-15T00:21:13;29.30;;;24.57;;
19255;SDS011;9762;52.490;13.410;2022-11-15T00:23:39;30.33;;;25.87;;
19255;SDS011;9762;52.490;13.410;2022-11-15T00:26:05;31.27;;;25.83;;
19255;SDS011;9762;52.490;13.410;2022-11-15T00:28:31;27.70;;;24.67;;
19255;SDS011;9762;52.490;13.410;2022-11-15T00:31:01;31.43;;;25.47;;
19255;SDS011;9762;52.490;13.410;2022-11-15T00:33:28;30.63;;;24.53;;
19255;SDS011;9762;52.490;13.410;2022-11-15T00:35:53;33.43;;;26.07;;
19255;SDS011;9762;52.490;13.410;2022-11-15T00:38:34;27.97;;;23.97;;
19255;SDS011;9762;52.490;13.410;2022-11-15T00:41:02;27.50;;;24.13;;
19255;SDS011;9762;52.490;13.410;2022-11-15T00:43:29;33.63;;;26.67;;
19255;SDS011;9762;52.490;13.410;2022-11-15T00:45:55;29.77;;;25.57;;
19255;SDS011;9762;52.490;13.410;2022-11-15T00:48:20;33.80;;;25.40;;
19255;SDS011;9762;52.490;13.410;2022-11-15T00:50:46;31.97;;;26.67;;
19255;SDS011;9762;52.490;13.410;2022-11-15T00:53:13;33.97;;;25.47;;
19255;SDS011;9762;52.490;13.410;2022-11-15T00:55:38;31.80;;;25.40;;
19255;SDS011;9762;52.490;13.410;2022-11-15T00:58:04;30.60;;;26.10;;
19255;SDS011;9762;52.490;13.410;2022-11-15T01:00:29;29.50;;;25.37;;
19255;SDS011;9762;52.490;13.410;2022-11-15T01:02:55;34.00;;;27.83;;
19255;SDS011;9762;52.490;13.410;2022-11-15T01:05:21;30.27;;;25.73;;
19255;SDS011;9762;52.490;13.410;2022-11-15T01:07:47;29.63;;;25.10;;
19255;SDS011;9762;52.490;13.410;2022-11-15T01:10:17;30.00;;;26.53;;
19255;SDS011;9762;52.490;13.410;2022-11-15T01:12:43;28.43;;;25.40;;
19255;SDS011;9762;52.490;13.410;2022-11-15T01:15:08;27.80;;;23.93;;
19255;SDS011;9762;52.490;13.410;2022-11-15T01:17:34;29.30;;;24.67;;
19255;SDS011;9762;52.490;13.410;2022-11-15T01:20:00;33.30;;;26.50;;
19255;SDS011;9762;52.490;13.410;2022-11-15T01:22:25;32.40;;;25.50;;
19255;SDS011;9762;52.490;13.410;2022-11-15T01:24:51;30.63;;;25.63;;
19255;SDS011;9762;52.490;13.410;2022-11-15T01:27:17;29.53;;;24.73;;
19255;SDS011;9762;52.490;13.410;2022-11-15T01:29:43;28.20;;;24.97;;
19255;SDS011;9762;52.490;13.410;2022-11-15T01:32:08;33.23;;;26.67;;
19255;SDS011;9762;52.490;13.410;2022-11-15T01:34:34;28.13;;;24.87;;
19255;SDS011;9762;52.490;13.410;2022-11-15T01:36:59;27.23;;;24.27;;
19255;SDS011;9762;52.490;13.410;2022-11-15T01:39:25;32.97;;;26.23;;
19255;SDS011;9762;52.490;13.410;2022-11-15T01:41:51;28.67;;;25.67;;
19255;SDS011;9762;52.490;13.410;2022-11-15T01:47:09;28.33;;;24.60;;
19255;SDS011;9762;52.490;13.410;2022-11-15T01:49:40;31.80;;;25.80;;
19255;SDS011;9762;52.490;13.410;2022-11-15T01:52:24;28.97;;;24.93;;
19255;SDS011;9762;52.490;13.410;2022-11-15T01:54:53;28.70;;;24.83;;
19255;SDS011;9762;52.490;13.410;2022-11-15T01:57:34;35.97;;;25.57;;
19255;SDS011;9762;52.490;13.410;2022-11-15T02:00:00;28.03;;;25.00;;
19255;SDS011;9762;52.490;13.410;2022-11-15T02:02:27;28.47;;;24.67;;
19255;SDS011;9762;52.490;13.410;2022-11-15T02:04:52;32.97;;;25.13;;
19255;SDS011;9762;52.490;13.410;2022-11-15T02:07:19;28.90;;;24.87;;
19255;SDS011;9762;52.490;13.410;2022-11-15T02:09:46;28.93;;;25.07;;
19255;SDS011;9762;52.490;13.410;2022-11-15T02:12:13;31.17;;;25.47;;
19255;SDS011;9762;52.490;13.410;2022-11-15T02:14:42;30.70;;;24.73;;
19255;SDS011;9762;52.490;13.410;2022-11-15T02:34:05;31.63;;;25.80;;
19255;SDS011;9762;52.490;13.410;2022-11-15T02:36:44;31.20;;;26.13;;
19255;SDS011;9762;52.490;13.410;2022-11-15T02:39:31;30.53;;;25.73;;
19255;SDS011;9762;52.490;13.410;2022-11-15T02:42:11;29.63;;;26.27;;
19255;SDS011;9762;52.490;13.410;2022-11-15T02:45:01;30.30;;;24.77;;
19255;SDS011;9762;52.490;13.410;2022-11-15T02:47:32;28.77;;;25.00;;
19255;SDS011;9762;52.490;13.410;2022-11-15T02:50:05;29.80;;;25.23;;
19255;SDS011;9762;52.490;13.410;2022-11-15T02:52:33;30.23;;;25.30;;
19255;SDS011;9762;52.490;13.410;2022-11-15T02:55:00;32.67;;;26.00;;
19255;SDS011;9762;52.490;13.410;2022-11-15T03:04:56;31.43;;;26.47;;
19255;SDS011;9762;52.490;13.410;2022-11-15T03:21:30;33.13;;;26.70;;
19255;SDS011;9762;52.490;13.410;2022-11-15T03:23:58;29.33;;;25.03;;
19255;SDS011;9762;52.490;13.410;2022-11-15T03:26:28;29.03;;;25.40;;
19255;SDS011;9762;52.490;13.410;2022-11-15T03:28:58;28.07;;;24.47;;
19255;SDS011;9762;52.490;13.410;2022-11-15T03:31:32;30.20;;;24.80;;
19255;SDS011;9762;52.490;13.410;2022-11-15T03:34:22;30.90;;;25.30;;
19255;SDS011;9762;52.490;13.410;2022-11-15T03:37:01;31.67;;;25.87;;
19255;SDS011;9762;52.490;13.410;2022-11-15T03:39:26;29.50;;;24.73;;
19255;SDS011;9762;52.490;13.410;2022-11-15T03:47:20;31.07;;;26.43;;
19255;SDS011;9762;52.490;13.410;2022-11-15T03:49:55;31.87;;;26.30;;
19255;SDS011;9762;52.490;13.410;2022-11-15T03:52:30;30.10;;;24.63;;
19255;SDS011;9762;52.490;13.410;2022-11-15T03:54:57;28.40;;;24.93;;
19255;SDS011;9762;52.490;13.410;2022-11-15T03:57:26;28.90;;;25.10;;
19255;SDS011;9762;52.490;13.410;2022-11-15T03:59:51;29.67;;;24.73;;
19255;SDS011;9762;52.490;13.410;2022-11-15T04:02:17;30.60;;;25.27;;
19255;SDS011;9762;52.490;13.410;2022-11-15T04:04:42;27.40;;;23.93;;
19255;SDS011;9762;52.490;13.410;2022-11-15T04:07:08;30.27;;;24.83;;
19255;SDS011;9762;52.490;13.410;2022-11-15T04:09:34;30.03;;;25.17;;
19255;SDS011;9762;52.490;13.410;2022-11-15T04:12:19;28.60;;;25.33;;
19255;SDS011;9762;52.490;13.410;2022-11-15T04:14:55;28.37;;;24.90;;
19255;SDS011;9762;52.490;13.410;2022-11-15T04:23:09;28.97;;;25.03;;
19255;SDS011;9762;52.490;13.410;2022-11-15T04:25:58;30.87;;;25.10;;
19255;SDS011;9762;52.490;13.410;2022-11-15T04:28:35;29.90;;;24.27;;
19255;SDS011;9762;52.490;13.410;2022-11-15T04:31:21;29.73;;;23.93;;
19255;SDS011;9762;52.490;13.410;2022-11-15T04:33:47;28.80;;;24.97;;
19255;SDS011;9762;52.490;13.410;2022-11-15T04:36:12;28.27;;;23.77;;
19255;SDS011;9762;52.490;13.410;2022-11-15T04:38:57;29.10;;;25.70;;
19255;SDS011;9762;52.490;13.410;2022-11-15T04:41:23;28.43;;;25.10;;
19255;SDS011;9762;52.490;13.410;2022-11-15T04:43:48;28.37;;;25.10;;
19255;SDS011;9762;52.490;13.410;2022-11-15T04:46:14;26.40;;;23.70;;
19255;SDS011;9762;52.490;13.410;2022-11-15T04:48:39;28.93;;;25.07;;
19255;SDS011;9762;52.490;13.410;2022-11-15T04:51:05;28.70;;;25.33;;
19255;SDS011;9762;52.490;13.410;2022-11-15T04:53:31;29.23;;;25.50;;
19255;SDS011;9762;52.490;13.410;2022-11-15T04:55:56;26.87;;;23.27;;
19255;SDS011;9762;52.490;13.410;2022-11-15T04:58:22;29.10;;;24.83;;
19255;SDS011;9762;52.490;13.410;2022-11-15T05:00:47;30.13;;;24.83;;
19255;SDS011;9762;52.490;13.410;2022-11-15T05:03:13;32.87;;;25.63;;
19255;SDS011;9762;52.490;13.410;2022-11-15T05:05:57;32.77;;;25.37;;
19255;SDS011;9762;52.490;13.410;2022-11-15T05:08:23;29.53;;;24.77;;
19255;SDS011;9762;52.490;13.410;2022-11-15T05:10:49;30.90;;;26.63;;
19255;SDS011;9762;52.490;13.410;2022-11-15T05:13:15;30.97;;;25.03;;
19255;SDS011;9762;52.490;13.410;2022-11-15T05:15:41;29.37;;;25.07;;
19255;SDS011;9762;52.490;13.410;2022-11-15T05:18:06;31.03;;;26.40;;
19255;SDS011;9762;52.490;13.410;2022-11-15T05:20:32;28.10;;;22.57;;
19255;SDS011;9762;52.490;13.410;2022-11-15T05:22:58;31.33;;;26.13;;
19255;SDS011;9762;52.490;13.410;2022-11-15T05:25:24;32.30;;;25.33;;
19255;SDS011;9762;52.490;13.410;2022-11-15T05:27:50;32.00;;;26.03;;
19255;SDS011;9762;52.490;13.410;2022-11-15T05:30:16;29.37;;;25.00;;
19255;SDS011;9762;52.490;13.410;2022-11-15T05:32:42;27.97;;;23.73;;
19255;SDS011;9762;52.490;13.410;2022-11-15T05:35:08;31.00;;;25.33;;
19255;SDS011;9762;52.490;13.410;2022-11-15T05:38:05;29.37;;;25.47;;
19255;SDS011;9762;52.490;13.410;2022-11-15T05:40:31;31.13;;;26.63;;
19255;SDS011;9762;52.490;13.410;2022-11-15T05:42:58;32.47;;;25.67;;
19255;SDS011;9762;52.490;13.410;2022-11-15T05:45:27;31.83;;;25.70;;
19255;SDS011;9762;52.490;13.410;2022-11-15T05:47:53;29.73;;;24.93;;
19255;SDS011;9762;52.490;13.410;2022-11-15T05:50:21;29.83;;;24.50;;
19255;SDS011;9762;52.490;13.410;2022-11-15T05:52:47;32.00;;;24.93;;
19255;SDS011;9762;52.490;13.410;2022-11-15T05:55:13;30.80;;;25.43;;
19255;SDS011;9762;52.490;13.410;2022-11-15T05:57:39;30.33;;;25.47;;
19255;SDS011;9762;52.490;13.410;2022-11-15T06:00:05;31.43;;;25.40;;
19255;SDS011;9762;52.490;13.410;2022-11-15T06:02:33;31.63;;;25.73;;
19255;SDS011;9762;52.490;13.410;2022-11-15T06:04:58;30.53;;;24.97;;
19255;SDS011;9762;52.490;13.410;2022-11-15T06:07:28;30.83;;;25.30;;
19255;SDS011;9762;52.490;13.410;2022-11-15T06:09:54;30.80;;;26.13;;
19255;SDS011;9762;52.490;13.410;2022-11-15T06:12:19;29.27;;;24.70;;
19255;SDS011;9762;52.490;13.410;2022-11-15T06:14:45;28.00;;;23.53;;
19255;SDS011;9762;52.490;13.410;2022-11-15T06:17:11;30.00;;;25.37;;
19255;SDS011;9762;52.490;13.410;2022-11-15T06:19:36;30.10;;;24.37;;
19255;SDS011;9762;52.490;13.410;2022-11-15T06:22:02;30.00;;;25.73;;
19255;SDS011;9762;52.490;13.410;2022-11-15T06:24:27;34.90;;;25.17;;
19255;SDS011;9762;52.490;13.410;2022-11-15T06:26:53;28.13;;;24.83;;
19255;SDS011;9762;52.490;13.410;2022-11-15T06:29:19;38.70;;;28.43;;
19255;SDS011;9762;52.490;13.410;2022-11-15T06:31:44;36.27;;;28.70;;
19255;SDS011;9762;52.490;13.410;2022-11-15T06:34:10;32.47;;;25.93;;
19255;SDS011;9762;52.490;13.410;2022-11-15T06:36:36;33.03;;;26.17;;
19255;SDS011;9762;52.490;13.410;2022-11-15T06:39:02;32.47;;;26.13;;
19255;SDS011;9762;52.490;13.410;2022-11-15T06:41:29;32.40;;;27.03;;
19255;SDS011;9762;52.490;13.410;2022-11-15T06:43:55;30.70;;;26.37;;
19255;SDS011;9762;52.490;13.410;2022-11-15T06:46:21;29.47;;;25.43;;
19255;SDS011;9762;52.490;13.410;2022-11-15T06:48:46;30.07;;;26.73;;
19255;SDS011;9762;52.490;13.410;2022-11-15T06:51:14;34.73;;;27.53;;
19255;SDS011;9762;52.490;13.410;2022-11-15T06:53:39;32.47;;;25.67;;
19255;SDS011;9762;52.490;13.410;2022-11-15T06:56:05;33.63;;;27.80;;
19255;SDS011;9762;52.490;13.410;2022-11-15T06:58:32;34.33;;;25.83;;
19255;SDS011;9762;52.490;13.410;2022-11-15T07:01:08;35.23;;;27.17;;
19255;SDS011;9762;52.490;13.410;2022-11-15T07:03:40;31.87;;;25.20;;
19255;SDS011;9762;52.490;13.410;2022-11-15T07:06:07;31.40;;;25.77;;
19255;SDS011;9762;52.490;13.410;2022-11-15T07:08:34;98.57;;;67.83;;
19255;SDS011;9762;52.490;13.410;2022-11-15T07:11:00;48.97;;;40.00;;
19255;SDS011;9762;52.490;13.410;2022-11-15T07:13:28;37.17;;;27.63;;
19255;SDS011;9762;52.490;13.410;2022-11-15T07:15:57;33.20;;;26.63;;
19255;SDS011;9762;52.490;13.410;2022-11-15T07:18:26;33.37;;;26.20;;
19255;SDS011;9762;52.490;13.410;2022-11-15T07:20:52;34.40;;;26.17;;
19255;SDS011;9762;52.490;13.410;2022-11-15T07:23:17;28.07;;;24.87;;
19255;SDS011;9762;52.490;13.410;2022-11-15T07:25:43;32.53;;;25.50;;
19255;SDS011;9762;52.490;13.410;2022-11-15T07:28:09;29.87;;;24.60;;
19255;SDS011;9762;52.490;13.410;2022-11-15T07:30:34;28.90;;;24.40;;
19255;SDS011;9762;52.490;13.410;2022-11-15T07:33:00;27.60;;;24.60;;
19255;SDS011;9762;52.490;13.410;2022-11-15T07:35:26;28.97;;;23.97;;
19255;SDS011;9762;52.490;13.410;2022-11-15T07:38:02;31.33;;;25.77;;
19255;SDS011;9762;52.490;13.410;2022-11-15T07:40:28;33.27;;;25.57;;
19255;SDS011;9762;52.490;13.410;2022-11-15T07:43:00;29.77;;;25.37;;
19255;SDS011;9762;52.490;13.410;2022-11-15T07:45:26;61.20;;;46.33;;
19255;SDS011;9762;52.490;13.410;2022-11-15T07:47:52;44.67;;;35.57;;
19255;SDS011;9762;52.490;13.410;2022-11-15T07:50:18;44.93;;;33.97;;
19255;SDS011;9762;52.490;13.410;2022-11-15T07:52:45;30.93;;;25.30;;
19255;SDS011;9762;52.490;13.410;2022-11-15T07:55:10;38.23;;;29.53;;
19255;SDS011;9762;52.490;13.410;2022-11-15T07:57:36;50.10;;;37.50;;
19255;SDS011;9762;52.490;13.410;2022-11-15T08:00:03;36.43;;;32.13;;
19255;SDS011;9762;52.490;13.410;2022-11-15T08:02:29;29.50;;;26.33;;
19255;SDS011;9762;52.490;13.410;2022-11-15T08:04:55;37.57;;;27.40;;
19255;SDS011;9762;52.490;13.410;2022-11-15T08:07:21;42.43;;;32.20;;
19255;SDS011;9762;52.490;13.410;2022-11-15T08:09:46;41.37;;;31.50;;
19255;SDS011;9762;52.490;13.410;2022-11-15T08:12:12;41.60;;;30.83;;
19255;SDS011;9762;52.490;13.410;2022-11-15T08:14:37;42.83;;;31.73;;
19255;SDS011;9762;52.490;13.410;2022-11-15T08:17:03;42.87;;;33.60;;
19255;SDS011;9762;52.490;13.410;2022-11-15T08:19:29;47.03;;;36.80;;
19255;SDS011;9762;52.490;13.410;2022-11-15T08:21:54;51.27;;;35.37;;
19255;SDS011;9762;52.490;13.410;2022-11-15T08:24:20;49.67;;;36.73;;
19255;SDS011;9762;52.490;13.410;2022-11-15T08:26:45;49.20;;;39.07;;
19255;SDS011;9762;52.490;13.410;2022-11-15T08:29:12;50.30;;;37.03;;
19255;SDS011;9762;52.490;13.410;2022-11-15T08:31:37;43.87;;;34.03;;
19255;SDS011;9762;52.490;13.410;2022-11-15T08:34:04;41.77;;;30.40;;
19255;SDS011;9762;52.490;13.410;2022-11-15T08:36:30;34.73;;;27.23;;
19255;SDS011;9762;52.490;13.410;2022-11-15T08:38:55;34.17;;;26.00;;
19255;SDS011;9762;52.490;13.410;2022-11-15T08:41:34;30.53;;;25.43;;
19255;SDS011;9762;52.490;13.410;2022-11-15T08:44:02;32.50;;;25.80;;
19255;SDS011;9762;52.490;13.410;2022-11-15T08:46:27;30.13;;;24.60;;
19255;SDS011;9762;52.490;13.410;2022-11-15T08:48:53;35.10;;;25.50;;
19255;SDS011;9762;52.490;13.410;2022-11-15T08:51:19;32.83;;;24.83;;
19255;SDS011;9762;52.490;13.410;2022-11-15T08:53:44;31.20;;;26.10;;
19255;SDS011;9762;52.490;13.410;2022-11-15T08:56:11;29.90;;;25.33;;
19255;SDS011;9762;52.490;13.410;2022-11-15T08:58:38;28.57;;;24.10;;
19255;SDS011;9762;52.490;13.410;2022-11-15T09:01:04;32.43;;;24.53;;
19255;SDS011;9762;52.490;13.410;2022-11-15T09:03:30;27.80;;;23.87;;
19255;SDS011;9762;52.490;13.410;2022-11-15T09:05:56;25.17;;;22.23;;
19255;SDS011;9762;52.490;13.410;2022-11-15T09:08:22;29.63;;;21.73;;
19255;SDS011;9762;52.490;13.410;2022-11-15T09:10:48;30.13;;;21.93;;
19255;SDS011;9762;52.490;13.410;2022-11-15T09:13:14;28.07;;;21.00;;
19255;SDS011;9762;52.490;13.410;2022-11-15T09:15:40;25.73;;;20.67;;
19255;SDS011;9762;52.490;13.410;2022-11-15T09:18:05;24.00;;;20.27;;
19255;SDS011;9762;52.490;13.410;2022-11-15T09:20:31;24.17;;;20.13;;
19255;SDS011;9762;52.490;13.410;2022-11-15T09:23:03;26.77;;;21.03;;
19255;SDS011;9762;52.490;13.410;2022-11-15T09:25:29;25.70;;;20.70;;
19255;SDS011;9762;52.490;13.410;2022-11-15T09:27:55;22.87;;;19.67;;
19255;SDS011;9762;52.490;13.410;2022-11-15T09:30:21;48.90;;;36.50;;
19255;SDS011;9762;52.490;13.410;2022-11-15T09:32:48;27.57;;;22.33;;
19255;SDS011;9762;52.490;13.410;2022-11-15T09:35:14;23.80;;;20.40;;
19255;SDS011;9762;52.490;13.410;2022-11-15T09:37:39;20.97;;;18.77;;
19255;SDS011;9762;52.490;13.410;2022-11-15T09:40:06;23.30;;;19.07;;
19255;SDS011;9762;52.490;13.410;2022-11-15T09:53:04;21.10;;;18.80;;
19255;SDS011;9762;52.490;13.410;2022-11-15T09:55:37;21.10;;;17.83;;
19255;SDS011;9762;52.490;13.410;2022-11-15T09:58:36;20.87;;;17.57;;
19255;SDS011;9762;52.490;13.410;2022-11-15T10:01:16;20.87;;;17.90;;
19255;SDS011;9762;52.490;13.410;2022-11-15T10:03:48;20.97;;;17.73;;
19255;SDS011;9762;52.490;13.410;2022-11-15T10:06:24;19.33;;;17.33;;
19255;SDS011;9762;52.490;13.410;2022-11-15T10:08:56;21.03;;;16.67;;
19255;SDS011;9762;52.490;13.410;2022-11-15T10:11:27;19.40;;;17.40;;
19255;SDS011;9762;52.490;13.410;2022-11-15T10:13:59;19.53;;;17.30;;
19255;SDS011;9762;52.490;13.410;2022-11-15T10:24:34;18.70;;;16.77;;
19255;SDS011;9762;52.490;13.410;2022-11-15T10:27:09;22.67;;;19.93;;
19255;SDS011;9762;52.490;13.410;2022-11-15T10:29:42;25.83;;;20.23;;
19255;SDS011;9762;52.490;13.410;2022-11-15T10:32:12;23.53;;;18.47;;
19255;SDS011;9762;52.490;13.410;2022-11-15T10:34:40;19.33;;;16.80;;
19255;SDS011;9762;52.490;13.410;2022-11-15T10:37:05;21.43;;;16.80;;
19255;SDS011;9762;52.490;13.410;2022-11-15T10:39:31;19.57;;;17.50;;
19255;SDS011;9762;52.490;13.410;2022-11-15T10:42:45;19.50;;;17.17;;
19255;SDS011;9762;52.490;13.410;2022-11-15T10:44:53;19.40;;;17.27;;
19255;SDS011;9762;52.490;13.410;2022-11-15T10:47:21;20.60;;;16.70;;
19255;SDS011;9762;52.490;13.410;2022-11-15T10:49:57;18.33;;;15.80;;
19255;SDS011;9762;52.490;13.410;2022-11-15T10:52:24;17.90;;;15.00;;
19255;SDS011;9762;52.490;13.410;2022-11-15T10:54:55;23.43;;;15.97;;
19255;SDS011;9762;52.490;13.410;2022-11-15T10:57:24;17.73;;;14.93;;
19255;SDS011;9762;52.490;13.410;2022-11-15T10:59:56;17.00;;;15.27;;
19255;SDS011;9762;52.490;13.410;2022-11-15T11:04:53;20.33;;;14.93;;
19255;SDS011;9762;52.490;13.410;2022-11-15T11:07:20;16.30;;;14.17;;
19255;SDS011;9762;52.490;13.410;2022-11-15T11:10:02;17.17;;;15.37;;
19255;SDS011;9762;52.490;13.410;2022-11-15T11:12:29;16.83;;;14.40;;
19255;SDS011;9762;52.490;13.410;2022-11-15T11:14:57;16.93;;;15.20;;
19255;SDS011;9762;52.490;13.410;2022-11-15T11:20:49;26.47;;;20.73;;
19255;SDS011;9762;52.490;13.410;2022-11-15T11:50:36;16.53;;;14.30;;
19255;SDS011;9762;52.490;13.410;2022-11-15T11:53:13;19.30;;;15.03;;
19255;SDS011;9762;52.490;13.410;2022-11-15T11:55:50;15.57;;;14.00;;
19255;SDS011;9762;52.490;13.410;2022-11-15T12:00:49;28.07;;;21.27;;
19255;SDS011;9762;52.490;13.410;2022-11-15T12:03:28;17.00;;;15.30;;
19255;SDS011;9762;52.490;13.410;2022-11-15T12:06:06;16.60;;;14.13;;
19255;SDS011;9762;52.490;13.410;2022-11-15T12:17:21;14.73;;;13.23;;
19255;SDS011;9762;52.490;13.410;2022-11-15T12:19:49;16.40;;;13.97;;
19255;SDS011;9762;52.490;13.410;2022-11-15T12:22:25;16.33;;;12.73;;
19255;SDS011;9762;52.490;13.410;2022-11-15T12:25:13;17.10;;;12.80;;
19255;SDS011;9762;52.490;13.410;2022-11-15T12:27:48;14.87;;;12.70;;
19255;SDS011;9762;52.490;13.410;2022-11-15T12:30:20;14.40;;;13.00;;
19255;SDS011;9762;52.490;13.410;2022-11-15T12:33:00;16.47;;;12.47;;
19255;SDS011;9762;52.490;13.410;2022-11-15T12:35:35;15.10;;;13.60;;
19255;SDS011;9762;52.490;13.410;2022-11-15T12:38:02;14.47;;;13.00;;
19255;SDS011;9762;52.490;13.410;2022-11-15T12:40:38;14.43;;;13.03;;
19255;SDS011;9762;52.490;13.410;2022-11-15T12:43:40;16.60;;;13.50;;
19255;SDS011;9762;52.490;13.410;2022-11-15T12:46:11;16.80;;;14.43;;
19255;SDS011;9762;52.490;13.410;2022-11-15T12:48:49;15.13;;;13.23;;
19255;SDS011;9762;52.490;13.410;2022-11-15T12:51:18;16.60;;;14.10;;
19255;SDS011;9762;52.490;13.410;2022-11-15T12:53:45;17.67;;;14.07;;
19255;SDS011;9762;52.490;13.410;2022-11-15T12:58:50;16.10;;;14.50;;
19255;SDS011;9762;52.490;13.410;2022-11-15T13:04:07;17.80;;;14.73;;
19255;SDS011;9762;52.490;13.410;2022-11-15T13:06:39;17.27;;;13.63;;
19255;SDS011;9762;52.490;13.410;2022-11-15T13:11:59;17.93;;;14.90;;
19255;SDS011;9762;52.490;13.410;2022-11-15T13:17:37;16.43;;;14.47;;
19255;SDS011;9762;52.490;13.410;2022-11-15T13:20:18;17.50;;;14.90;;
19255;SDS011;9762;52.490;13.410;2022-11-15T13:23:07;20.23;;;14.70;;
19255;SDS011;9762;52.490;13.410;2022-11-15T13:25:52;17.80;;;15.30;;
19255;SDS011;9762;52.490;13.410;2022-11-15T13:28:24;19.03;;;14.43;;
19255;SDS011;9762;52.490;13.410;2022-11-15T13:31:24;18.27;;;13.47;;
19255;SDS011;9762;52.490;13.410;2022-11-15T13:33:50;16.37;;;13.43;;
19255;SDS011;9762;52.490;13.410;2022-11-15T13:36:22;16.17;;;13.93;;
19255;SDS011;9762;52.490;13.410;2022-11-15T13:38:55;16.43;;;13.33;;
19255;SDS011;9762;52.490;13.410;2022-11-15T13:41:24;15.40;;;13.80;;
19255;SDS011;9762;52.490;13.410;2022-11-15T13:43:57;15.83;;;14.20;;
19255;SDS011;9762;52.490;13.410;2022-11-15T13:48:56;20.37;;;13.53;;
19255;SDS011;9762;52.490;13.410;2022-11-15T13:54:13;16.07;;;12.50;;
19255;SDS011;9762;52.490;13.410;2022-11-15T13:56:53;16.63;;;12.80;;
19255;SDS011;9762;52.490;13.410;2022-11-15T13:59:34;13.43;;;12.00;;
19255;SDS011;9762;52.490;13.410;2022-11-15T14:02:03;18.63;;;12.63;;
19255;SDS011;9762;52.490;13.410;2022-11-15T14:04:39;15.57;;;12.40;;
19255;SDS011;9762;52.490;13.410;2022-11-15T14:07:17;15.37;;;13.87;;
19255;SDS011;9762;52.490;13.410;2022-11-15T14:09:44;19.83;;;12.53;;
19255;SDS011;9762;52.490;13.410;2022-11-15T14:15:00;14.00;;;12.60;;
19255;SDS011;9762;52.490;13.410;2022-11-15T14:17:42;15.23;;;12.30;;
19255;SDS011;9762;52.490;13.410;2022-11-15T14:23:05;14.00;;;12.40;;
19255;SDS011;9762;52.490;13.410;2022-11-15T14:25:57;14.30;;;11.93;;
19255;SDS011;9762;52.490;13.410;2022-11-15T14:30:50;17.40;;;13.07;;
19255;SDS011;9762;52.490;13.410;2022-11-15T14:35:53;16.67;;;12.83;;
19255;SDS011;9762;52.490;13.410;2022-11-15T14:38:20;14.13;;;12.50;;
19255;SDS011;9762;52.490;13.410;2022-11-15T14:40:46;16.37;;;12.57;;
19255;SDS011;9762;52.490;13.410;2022-11-15T14:43:12;16.53;;;13.23;;
19255;SDS011;9762;52.490;13.410;2022-11-15T14:45:38;16.07;;;12.43;;
19255;SDS011;9762;52.490;13.410;2022-11-15T14:48:04;14.20;;;12.03;;
19255;SDS011;9762;52.490;13.410;2022-11-15T14:50:30;14.33;;;12.83;;
19255;SDS011;9762;52.490;13.410;2022-11-15T14:52:57;17.37;;;13.57;;
19255;SDS011;9762;52.490;13.410;2022-11-15T14:55:24;15.97;;;13.10;;
19255;SDS011;9762;52.490;13.410;2022-11-15T14:57:49;16.47;;;13.10;;
19255;SDS011;9762;52.490;13.410;2022-11-15T15:00:15;21.10;;;13.77;;
19255;SDS011;9762;52.490;13.410;2022-11-15T15:02:42;17.77;;;14.17;;
19255;SDS011;9762;52.490;13.410;2022-11-15T15:05:19;21.20;;;12.80;;
19255;SDS011;9762;52.490;13.410;2022-11-15T15:07:50;16.67;;;13.30;;
19255;SDS011;9762;52.490;13.410;2022-11-15T15:10:19;17.57;;;14.13;;
19255;SDS011;9762;52.490;13.410;2022-11-15T15:12:45;18.90;;;13.07;;
19255;SDS011;9762;52.490;13.410;2022-11-15T15:15:21;16.77;;;13.77;;
19255;SDS011;9762;52.490;13.410;2022-11-15T15:17:51;17.13;;;13.53;;
19255;SDS011;9762;52.490;13.410;2022-11-15T15:20:16;23.57;;;15.50;;
19255;SDS011;9762;52.490;13.410;2022-11-15T15:25:46;15.87;;;14.27;;
19255;SDS011;9762;52.490;13.410;2022-11-15T15:28:13;17.27;;;13.80;;
19255;SDS011;9762;52.490;13.410;2022-11-15T15:30:40;17.40;;;14.67;;
19255;SDS011;9762;52.490;13.410;2022-11-15T15:33:06;16.50;;;14.60;;
19255;SDS011;9762;52.490;13.410;2022-11-15T15:35:32;19.20;;;14.00;;
19255;SDS011;9762;52.490;13.410;2022-11-15T15:38:00;22.37;;;16.77;;
19255;SDS011;9762;52.490;13.410;2022-11-15T15:40:27;19.10;;;16.77;;
19255;SDS011;9762;52.490;13.410;2022-11-15T15:42:54;18.53;;;16.60;;
19255;SDS011;9762;52.490;13.410;2022-11-15T15:45:20;22.27;;;17.40;;
19255;SDS011;9762;52.490;13.410;2022-11-15T15:47:46;21.57;;;17.43;;
19255;SDS011;9762;52.490;13.410;2022-11-15T15:50:15;19.30;;;17.23;;
19255;SDS011;9762;52.490;13.410;2022-11-15T15:52:46;19.93;;;16.00;;
19255;SDS011;9762;52.490;13.410;2022-11-15T15:55:11;20.90;;;17.90;;
19255;SDS011;9762;52.490;13.410;2022-11-15T15:57:37;27.07;;;18.40;;
19255;SDS011;9762;52.490;13.410;2022-11-15T16:00:03;28.97;;;18.33;;
19255;SDS011;9762;52.490;13.410;2022-11-15T16:02:29;26.30;;;18.67;;
19255;SDS011;9762;52.490;13.410;2022-11-15T16:04:55;25.27;;;18.50;;
19255;SDS011;9762;52.490;13.410;2022-11-15T16:07:21;20.93;;;17.77;;
19255;SDS011;9762;52.490;13.410;2022-11-15T16:09:48;24.90;;;17.37;;
19255;SDS011;9762;52.490;13.410;2022-11-15T16:12:28;25.67;;;17.93;;
19255;SDS011;9762;52.490;13.410;2022-11-15T16:14:54;22.53;;;17.00;;
19255;SDS011;9762;52.490;13.410;2022-11-15T16:17:21;24.37;;;16.40;;
19255;SDS011;9762;52.490;13.410;2022-11-15T16:19:48;25.17;;;16.03;;
19255;SDS011;9762;52.490;13.410;2022-11-15T16:22:14;23.20;;;15.57;;
19255;SDS011;9762;52.490;13.410;2022-11-15T16:24:40;21.23;;;18.03;;
19255;SDS011;9762;52.490;13.410;2022-11-15T16:27:05;24.63;;;17.00;;
19255;SDS011;9762;52.490;13.410;2022-11-15T16:29:37;23.53;;;16.93;;
19255;SDS011;9762;52.490;13.410;2022-11-15T16:32:02;19.30;;;17.23;;
19255;SDS011;9762;52.490;13.410;2022-11-15T16:34:28;22.47;;;17.93;;
19255;SDS011;9762;52.490;13.410;2022-11-15T16:36:54;23.50;;;17.97;;
19255;SDS011;9762;52.490;13.410;2022-11-15T16:39:20;20.27;;;17.90;;
19255;SDS011;9762;52.490;13.410;2022-11-15T16:41:47;26.67;;;19.40;;
19255;SDS011;9762;52.490;13.410;2022-11-15T16:44:13;25.67;;;19.37;;
19255;SDS011;9762;52.490;13.410;2022-11-15T16:46:40;27.30;;;20.23;;
19255;SDS011;9762;52.490;13.410;2022-11-15T16:49:13;23.87;;;19.43;;
19255;SDS011;9762;52.490;13.410;2022-11-15T16:51:39;25.10;;;19.77;;
19255;SDS011;9762;52.490;13.410;2022-11-15T16:54:12;27.27;;;20.73;;
19255;SDS011;9762;52.490;13.410;2022-11-15T16:56:38;28.20;;;21.00;;
19255;SDS011;9762;52.490;13.410;2022-11-15T16:59:04;58.63;;;30.33;;